createdAt,value
2023-05-19T00:00:48.566Z,1.95
2023-05-19T00:04:01.861Z,2.00
2023-05-19T00:07:04.002Z,2.15
2023-05-19T00:10:06.417Z,1.98
2023-05-19T00:13:08.417Z,2.40
2023-05-19T00:16:10.682Z,1.80
2023-05-19T00:19:12.273Z,2.40
2023-05-19T00:22:14.860Z,1.67
2023-05-19T00:25:16.437Z,1.80
2023-05-19T00:28:17.939Z,1.40
2023-05-19T00:31:19.608Z,1.50
2023-05-19T00:34:21.157Z,2.20
2023-05-19T00:37:23.408Z,1.85
2023-05-19T00:40:25.703Z,1.90
2023-05-19T00:43:27.638Z,2.17
2023-05-19T00:46:30.300Z,2.20
2023-05-19T00:49:32.111Z,1.65
2023-05-19T00:52:33.755Z,1.75
2023-05-19T00:55:37.502Z,1.90
2023-05-19T00:58:39.224Z,1.70
2023-05-19T01:01:41.186Z,2.15
2023-05-19T01:04:44.709Z,1.63
2023-05-19T01:07:47.178Z,1.60
2023-05-19T01:10:48.726Z,1.93
2023-05-19T01:13:50.528Z,1.52
2023-05-19T01:17:23.112Z,1.77
2023-05-19T01:20:35.982Z,1.80
2023-05-19T01:27:35.574Z,1.95
2023-05-19T01:30:40.376Z,2.20
2023-05-19T01:33:43.847Z,1.90
2023-05-19T01:36:49.749Z,1.50
2023-05-19T01:39:52.047Z,2.30
2023-05-19T01:42:57.516Z,2.13
2023-05-19T01:46:05.586Z,2.05
2023-05-19T01:49:08.043Z,2.20
2023-05-19T01:52:09.544Z,1.73
2023-05-19T01:55:11.402Z,2.30
2023-05-19T01:58:31.833Z,1.80
2023-05-19T02:01:53.015Z,1.90
2023-05-19T02:05:03.031Z,1.77
2023-05-19T02:08:08.869Z,1.77
2023-05-19T02:11:25.714Z,2.20
2023-05-19T02:14:35.677Z,1.83
2023-05-19T02:17:41.563Z,1.60
2023-05-19T02:20:44.565Z,2.30
2023-05-19T02:23:46.817Z,1.73
2023-05-19T02:26:49.718Z,1.75
2023-05-19T02:29:51.389Z,1.98
2023-05-19T02:32:54.347Z,1.90
2023-05-19T02:35:57.219Z,1.92
2023-05-19T02:39:00.890Z,1.83
2023-05-19T02:42:02.329Z,1.80
2023-05-19T02:45:04.285Z,1.85
2023-05-19T02:48:05.916Z,1.95
2023-05-19T02:51:07.576Z,1.60
2023-05-19T02:54:09.099Z,1.73
2023-05-19T02:57:11.174Z,1.65
2023-05-19T03:00:13.265Z,1.90
2023-05-19T03:03:15.331Z,2.37
2023-05-19T03:06:17.994Z,1.77
2023-05-19T03:09:20.178Z,2.00
2023-05-19T03:12:21.780Z,1.80
2023-05-19T03:15:23.403Z,1.92
2023-05-19T03:18:26.264Z,1.40
2023-05-19T03:21:27.857Z,1.80
2023-05-19T03:24:29.356Z,1.58
2023-05-19T03:27:31.336Z,1.10
2023-05-19T03:30:33.021Z,1.58
2023-05-19T03:33:43.455Z,1.98
2023-05-19T03:36:50.192Z,1.58
2023-05-19T03:39:51.852Z,1.40
2023-05-19T03:42:54.342Z,2.05
2023-05-19T03:45:56.740Z,1.77
2023-05-19T03:49:21.268Z,1.95
2023-05-19T03:52:46.589Z,2.28
2023-05-19T03:56:01.834Z,2.30
2023-05-19T03:59:06.041Z,1.80
2023-05-19T04:02:08.357Z,1.90
2023-05-19T04:05:10.720Z,2.27
2023-05-19T04:08:12.307Z,1.40
2023-05-19T04:11:16.745Z,1.65
2023-05-19T04:14:19.526Z,1.05
2023-05-19T04:17:21.927Z,1.60
2023-05-19T04:20:23.414Z,2.00
2023-05-19T04:23:25.646Z,1.70
2023-05-19T04:26:30.801Z,2.35
2023-05-19T04:29:32.606Z,2.00
2023-05-19T04:32:34.179Z,2.28
2023-05-19T04:35:38.033Z,1.70
2023-05-19T04:38:39.933Z,2.03
2023-05-19T04:41:44.738Z,1.88
2023-05-19T04:44:49.141Z,2.22
2023-05-19T04:47:52.596Z,1.88
2023-05-19T04:53:56.287Z,2.35
2023-05-19T04:56:57.857Z,1.95
2023-05-19T05:00:08.289Z,1.80
2023-05-19T05:03:22.782Z,2.25
2023-05-19T05:06:24.818Z,2.33
2023-05-19T05:09:26.470Z,2.55
2023-05-19T05:12:29.462Z,1.90
2023-05-19T05:15:31.630Z,2.47
2023-05-19T05:18:38.665Z,2.38
2023-05-19T05:21:41.450Z,2.55
2023-05-19T05:24:44.256Z,2.53
2023-05-19T05:27:46.009Z,1.98
2023-05-19T05:30:49.147Z,1.97
2023-05-19T05:33:50.915Z,2.73
2023-05-19T05:36:56.353Z,3.08
2023-05-19T05:39:57.842Z,2.63
2023-05-19T05:43:02.405Z,2.60
2023-05-19T05:46:07.390Z,2.60
2023-05-19T05:49:09.203Z,2.80
2023-05-19T05:52:12.512Z,2.40
2023-05-19T05:55:19.604Z,2.80
2023-05-19T05:58:22.304Z,2.50
2023-05-19T06:01:24.015Z,2.33
2023-05-19T06:04:26.324Z,2.55
2023-05-19T06:07:29.153Z,2.42
2023-05-19T06:10:31.044Z,2.40
2023-05-19T06:13:36.681Z,2.25
2023-05-19T06:16:41.196Z,2.25
2023-05-19T06:19:43.271Z,2.42
2023-05-19T06:22:44.831Z,2.40
2023-05-19T06:25:46.840Z,2.42
2023-05-19T06:28:49.114Z,3.00
2023-05-19T06:31:51.353Z,2.55
2023-05-19T06:34:56.465Z,2.42
2023-05-19T06:37:58.043Z,2.55
2023-05-19T06:40:59.766Z,2.95
2023-05-19T06:44:03.609Z,2.70
2023-05-19T06:47:07.941Z,2.25
2023-05-19T06:50:10.177Z,2.50
2023-05-19T06:53:14.339Z,2.60
2023-05-19T06:56:16.276Z,2.40
2023-05-19T06:59:21.669Z,2.60
2023-05-19T07:02:23.368Z,2.30
2023-05-19T07:05:24.873Z,2.30
2023-05-19T07:08:30.803Z,2.25
2023-05-19T07:11:35.146Z,3.05
2023-05-19T07:14:38.925Z,2.70
2023-05-19T07:17:41.256Z,2.78
2023-05-19T07:20:43.382Z,2.65
2023-05-19T07:23:45.105Z,3.08
2023-05-19T07:26:46.783Z,2.58
2023-05-19T07:29:48.361Z,2.42
2023-05-19T07:32:50.047Z,3.08
2023-05-19T07:35:51.817Z,2.75
2023-05-19T07:38:53.517Z,3.40
2023-05-19T07:41:56.794Z,3.00
2023-05-19T07:48:01.272Z,2.75
2023-05-19T07:51:03.103Z,2.60
2023-05-19T07:54:04.685Z,2.78
2023-05-19T07:57:06.445Z,2.60
2023-05-19T08:00:10.053Z,3.13
2023-05-19T08:03:13.708Z,2.40
2023-05-19T08:06:15.494Z,2.88
2023-05-19T08:09:16.990Z,2.60
2023-05-19T08:12:18.518Z,4.28
2023-05-19T08:15:20.699Z,2.75
2023-05-19T08:18:31.409Z,2.65
2023-05-19T08:21:34.604Z,2.90
2023-05-19T08:24:36.560Z,3.00
2023-05-19T08:27:38.039Z,3.10
2023-05-19T08:30:39.837Z,2.72
2023-05-19T08:33:41.411Z,2.47
2023-05-19T08:36:45.203Z,2.85
2023-05-19T08:39:47.530Z,2.45
2023-05-19T08:42:49.284Z,3.00
2023-05-19T08:45:54.042Z,2.90
2023-05-19T08:49:07.272Z,2.50
2023-05-19T08:52:19.928Z,2.33
2023-05-19T08:55:27.658Z,2.80
2023-05-19T08:58:30.882Z,2.60
2023-05-19T09:04:34.951Z,2.80
2023-05-19T09:07:37.842Z,3.05
2023-05-19T09:10:39.402Z,2.40
2023-05-19T09:13:40.981Z,1.90
2023-05-19T09:16:48.122Z,2.40
2023-05-19T09:19:50.104Z,2.03
2023-05-19T09:22:52.627Z,2.08
2023-05-19T09:25:54.464Z,2.15
2023-05-19T09:28:58.176Z,2.10
2023-05-19T09:32:05.176Z,2.47
2023-05-19T09:35:07.384Z,2.55
2023-05-19T09:38:10.975Z,2.85
2023-05-19T09:41:14.608Z,2.38
2023-05-19T09:44:30.218Z,2.58
2023-05-19T09:47:42.022Z,2.60
2023-05-19T09:50:45.610Z,2.40
2023-05-19T09:53:47.922Z,2.28
2023-05-19T09:57:00.162Z,2.37
2023-05-19T10:00:14.680Z,2.40
2023-05-19T10:03:18.555Z,2.58
2023-05-19T10:06:22.239Z,2.67
2023-05-19T10:09:25.589Z,2.40
2023-05-19T10:12:28.140Z,3.13
2023-05-19T10:15:30.562Z,2.70
2023-05-19T10:18:33.644Z,3.27
2023-05-19T10:21:35.180Z,2.25
2023-05-19T10:24:36.679Z,2.47
2023-05-19T10:27:44.667Z,2.47
2023-05-19T10:30:50.917Z,2.50
2023-05-19T10:34:07.977Z,2.28
2023-05-19T10:37:24.936Z,2.70
2023-05-19T10:40:55.442Z,2.10
2023-05-19T10:44:19.499Z,2.63
2023-05-19T10:47:25.396Z,2.40
2023-05-19T10:50:27.056Z,2.28
2023-05-19T10:53:33.184Z,2.60
2023-05-19T10:56:36.241Z,2.63
2023-05-19T10:59:39.230Z,2.30
2023-05-19T11:02:43.747Z,1.92
2023-05-19T11:05:46.385Z,2.33
2023-05-19T11:08:53.611Z,2.55
2023-05-19T11:11:55.394Z,2.72
2023-05-19T11:14:57.988Z,2.10
2023-05-19T11:18:01.886Z,2.65
2023-05-19T11:21:03.684Z,2.35
2023-05-19T11:24:11.357Z,2.00
2023-05-19T11:27:33.739Z,2.30
2023-05-19T11:30:35.741Z,2.03
2023-05-19T11:33:37.838Z,2.22
2023-05-19T11:36:39.987Z,2.60
2023-05-19T11:39:45.104Z,1.98
2023-05-19T11:42:46.910Z,2.15
2023-05-19T11:45:48.453Z,1.98
2023-05-19T11:48:50.479Z,2.13
2023-05-19T11:51:52.127Z,2.28
2023-05-19T11:54:53.658Z,2.15
2023-05-19T11:58:02.903Z,2.00
2023-05-19T12:01:06.680Z,2.42
2023-05-19T12:04:10.120Z,1.97
2023-05-19T12:07:14.564Z,1.80
2023-05-19T12:10:16.526Z,1.83
2023-05-19T12:13:19.749Z,1.95
2023-05-19T12:19:25.781Z,2.60
2023-05-19T12:22:27.676Z,2.50
2023-05-19T12:25:31.240Z,2.30
2023-05-19T12:28:33.402Z,2.65
2023-05-19T12:31:35.925Z,2.40
2023-05-19T12:34:38.868Z,2.63
2023-05-19T12:37:43.761Z,2.15
2023-05-19T12:40:45.614Z,2.22
2023-05-19T12:43:48.671Z,2.50
2023-05-19T12:46:52.935Z,2.05
2023-05-19T12:50:04.968Z,2.50
2023-05-19T12:53:12.129Z,2.38
2023-05-19T12:56:15.290Z,2.72
2023-05-19T12:59:30.928Z,2.40
2023-05-19T13:03:08.167Z,2.70
2023-05-19T13:06:10.904Z,3.40
2023-05-19T13:09:12.903Z,2.60
2023-05-19T13:12:15.057Z,3.10
2023-05-19T13:15:16.627Z,2.22
2023-05-19T13:18:18.246Z,2.40
2023-05-19T13:21:19.712Z,2.47
2023-05-19T13:24:24.307Z,2.33
2023-05-19T13:27:26.248Z,2.42
2023-05-19T13:30:28.436Z,2.55
2023-05-19T13:33:30.434Z,3.88
2023-05-19T13:36:33.349Z,3.00
2023-05-19T13:39:35.511Z,3.28
2023-05-19T13:42:38.214Z,2.58
2023-05-19T13:45:41.097Z,2.78
2023-05-19T13:48:42.628Z,2.53
2023-05-19T13:51:44.599Z,2.47
2023-05-19T13:54:46.251Z,2.20
2023-05-19T13:57:47.862Z,3.33
2023-05-19T14:00:57.255Z,3.15
2023-05-19T14:03:59.709Z,3.33
2023-05-19T14:07:03.696Z,3.63
2023-05-19T14:10:06.830Z,4.40
2023-05-19T14:16:14.807Z,2.70
2023-05-19T14:19:16.446Z,2.47
2023-05-19T14:22:18.263Z,3.70
2023-05-19T14:25:19.709Z,2.60
2023-05-19T14:28:21.629Z,2.97
2023-05-19T14:31:23.898Z,3.20
2023-05-19T14:34:25.907Z,2.90
2023-05-19T14:37:28.892Z,3.03
2023-05-19T14:40:30.754Z,3.00
2023-05-19T14:43:33.233Z,2.97
2023-05-19T14:46:34.955Z,2.73
2023-05-19T14:49:36.566Z,2.92
2023-05-19T14:52:38.364Z,2.95
2023-05-19T14:55:40.035Z,3.00
2023-05-19T14:58:41.844Z,3.80
2023-05-19T15:01:43.453Z,2.92
2023-05-19T15:04:45.080Z,2.58
2023-05-19T15:07:46.574Z,2.35
2023-05-19T15:10:49.049Z,2.25
2023-05-19T15:13:50.610Z,2.43
2023-05-19T15:16:52.120Z,2.85
2023-05-19T15:19:56.435Z,2.90
2023-05-19T15:22:57.885Z,2.55
2023-05-19T15:25:59.406Z,2.75
2023-05-19T15:29:00.869Z,3.67
2023-05-19T15:32:02.825Z,2.80
2023-05-19T15:35:04.816Z,2.65
2023-05-19T15:38:06.426Z,2.75
2023-05-19T15:41:08.704Z,2.25
2023-05-19T15:44:10.612Z,2.50
2023-05-19T15:47:12.421Z,2.63
2023-05-19T15:50:14.944Z,2.90
2023-05-19T15:53:20.126Z,2.70
2023-05-19T15:59:26.749Z,2.78
2023-05-19T16:02:28.419Z,2.60
2023-05-19T16:05:29.911Z,2.30
2023-05-19T16:08:31.479Z,3.00
2023-05-19T16:11:33.029Z,3.13
2023-05-19T16:14:36.476Z,2.08
2023-05-19T16:17:38.146Z,2.47
2023-05-19T16:20:39.620Z,2.40
2023-05-19T16:23:41.095Z,2.83
2023-05-19T16:26:42.676Z,2.80
2023-05-19T16:29:44.322Z,2.58
2023-05-19T16:32:46.078Z,2.20
2023-05-19T16:35:47.734Z,2.30
2023-05-19T16:38:49.308Z,2.35
2023-05-19T16:41:51.115Z,2.55
2023-05-19T16:44:52.885Z,2.67
2023-05-19T16:47:54.527Z,2.33
2023-05-19T16:50:56.080Z,2.17
2023-05-19T16:53:57.522Z,2.10
2023-05-19T16:56:59.330Z,1.92
2023-05-19T17:00:00.880Z,2.67
2023-05-19T17:03:03.620Z,2.35
2023-05-19T17:06:05.251Z,2.70
2023-05-19T17:09:06.822Z,2.45
2023-05-19T17:12:09.051Z,3.13
2023-05-19T17:15:10.991Z,2.30
2023-05-19T17:18:12.783Z,2.50
2023-05-19T17:21:14.435Z,2.90
2023-05-19T17:24:16.240Z,2.90
2023-05-19T17:27:17.754Z,2.38
2023-05-19T17:30:20.835Z,2.65
2023-05-19T17:33:22.435Z,2.30
2023-05-19T17:36:24.489Z,2.40
2023-05-19T17:39:25.959Z,2.67
2023-05-19T17:42:28.979Z,2.50
2023-05-19T17:45:30.758Z,1.95
2023-05-19T17:48:32.827Z,1.98
2023-05-19T17:51:34.564Z,2.00
2023-05-19T17:54:36.340Z,2.30
2023-05-19T17:57:40.086Z,2.40
2023-05-19T18:00:41.968Z,2.22
2023-05-19T18:03:49.056Z,2.30
2023-05-19T18:06:52.046Z,1.85
2023-05-19T18:09:55.677Z,2.22
2023-05-19T18:12:57.248Z,2.22
2023-05-19T18:15:59.658Z,2.15
2023-05-19T18:19:01.267Z,2.20
2023-05-19T18:22:02.987Z,2.20
2023-05-19T18:25:04.933Z,1.70
2023-05-19T18:28:06.644Z,1.90
2023-05-19T18:31:17.327Z,1.90
2023-05-19T18:34:19.470Z,1.80
2023-05-19T18:37:21.022Z,2.20
2023-05-19T18:40:22.550Z,2.05
2023-05-19T18:43:24.100Z,1.92
2023-05-19T18:46:25.808Z,1.75
2023-05-19T18:49:27.515Z,1.90
2023-05-19T18:52:30.747Z,1.60
2023-05-19T18:55:32.280Z,1.92
2023-05-19T18:58:33.942Z,1.95
2023-05-19T19:01:35.733Z,1.70
2023-05-19T19:04:37.290Z,1.83
2023-05-19T19:07:45.537Z,1.63
2023-05-19T19:10:50.328Z,1.75
2023-05-19T19:13:54.426Z,1.73
2023-05-19T19:16:56.476Z,1.70
2023-05-19T19:19:58.289Z,1.60
2023-05-19T19:23:01.790Z,2.10
2023-05-19T19:26:03.482Z,1.70
2023-05-19T19:29:04.971Z,2.17
2023-05-19T19:32:06.847Z,2.42
2023-05-19T19:35:08.899Z,2.08
2023-05-19T19:38:10.633Z,3.03
2023-05-19T19:41:12.110Z,2.40
2023-05-19T19:44:13.700Z,6.47
2023-05-19T19:47:15.258Z,5.65
2023-05-19T19:50:18.782Z,5.00
2023-05-19T19:53:20.584Z,9.75
2023-05-19T19:56:24.516Z,8.45
2023-05-19T19:59:26.900Z,7.05
2023-05-19T20:02:28.632Z,5.73
2023-05-19T20:05:30.218Z,4.60
2023-05-19T20:08:31.688Z,4.10
2023-05-19T20:11:33.183Z,4.32
2023-05-19T20:14:34.677Z,3.65
2023-05-19T20:17:36.469Z,4.50
2023-05-19T20:20:41.382Z,3.60
2023-05-19T20:23:43.036Z,3.28
2023-05-19T20:26:44.997Z,3.47
2023-05-19T20:29:47.026Z,4.10
2023-05-19T20:32:48.697Z,3.92
2023-05-19T20:35:50.244Z,3.17
2023-05-19T20:38:51.797Z,2.97
2023-05-19T20:41:53.282Z,2.95
2023-05-19T20:44:54.787Z,2.90
2023-05-19T20:47:56.651Z,2.58
2023-05-19T20:50:58.269Z,2.67
2023-05-19T20:54:00.075Z,2.55
2023-05-19T20:57:06.243Z,3.40
2023-05-19T21:00:08.335Z,2.28
2023-05-19T21:03:09.859Z,2.55
2023-05-19T21:06:11.660Z,2.97
2023-05-19T21:09:14.935Z,2.50
2023-05-19T21:15:21.331Z,6.03
2023-05-19T21:18:22.911Z,5.53
2023-05-19T21:21:24.403Z,2.42
2023-05-19T21:24:26.507Z,2.30
2023-05-19T21:27:28.160Z,2.40
2023-05-19T21:30:29.660Z,2.63
2023-05-19T21:33:31.348Z,2.60
2023-05-19T21:36:33.485Z,2.40
2023-05-19T21:39:35.016Z,2.40
2023-05-19T21:42:36.482Z,2.00
2023-05-19T21:45:37.934Z,2.60
2023-05-19T21:48:39.505Z,2.30
2023-05-19T21:51:41.005Z,2.30
2023-05-19T21:54:42.530Z,2.85
2023-05-19T21:57:43.983Z,2.70
2023-05-19T22:00:53.223Z,2.20
2023-05-19T22:03:54.928Z,2.20
2023-05-19T22:06:56.462Z,2.47
2023-05-19T22:09:58.064Z,1.83
2023-05-19T22:12:59.563Z,1.80
2023-05-19T22:16:01.305Z,1.70
2023-05-19T22:19:03.011Z,2.53
2023-05-19T22:22:13.301Z,2.08
2023-05-19T22:25:15.786Z,7.22
2023-05-19T22:28:17.368Z,4.90
2023-05-19T22:31:18.966Z,3.13
2023-05-19T22:34:20.571Z,2.95
2023-05-19T22:37:23.712Z,2.83
2023-05-19T22:40:25.496Z,2.30
2023-05-19T22:43:26.961Z,2.90
2023-05-19T22:46:28.504Z,2.05
2023-05-19T22:49:32.567Z,2.17
2023-05-19T22:52:34.077Z,2.30
2023-05-19T22:55:37.574Z,2.22
2023-05-19T23:01:40.598Z,3.03
2023-05-19T23:04:42.154Z,2.55
2023-05-19T23:07:43.701Z,3.38
2023-05-19T23:10:45.513Z,3.38
2023-05-19T23:13:47.071Z,4.72
2023-05-19T23:16:48.750Z,4.00
2023-05-19T23:19:50.342Z,2.60
2023-05-19T23:22:52.214Z,2.70
2023-05-19T23:25:53.697Z,3.22
2023-05-19T23:28:55.473Z,2.75
2023-05-19T23:31:57.015Z,2.90
2023-05-19T23:35:09.030Z,3.10
2023-05-19T23:38:10.999Z,3.03
2023-05-19T23:41:12.777Z,2.80
2023-05-19T23:44:14.212Z,3.85
2023-05-19T23:47:15.671Z,3.08
2023-05-19T23:50:17.262Z,3.15
2023-05-19T23:53:18.783Z,3.08
2023-05-19T23:56:21.503Z,2.83
2023-05-19T23:59:23.058Z,2.83
